Time;durP1;ratioP1;P1;durP2;ratioP2;P2;SDS_P1;SDS_P2;PMS_P1;PMS_P2;Temp;Humidity;BMP_temperature;BMP_pressure;BME280_temperature;BME280_humidity;BME280_pressure;Samples;Min_cycle;Max_cycle;Signal;HPM_P1;HPM_P2
2023/01/16 00:04:44;;;;;;;11.63;7.47;;;;;;;4.58;70.27;97511.56;10330798;28;20032;-47
2023/01/16 00:09:43;;;;;;;13.38;7.68;;;;;;;4.49;70.37;97519.97;10331647;28;20045;-46
2023/01/16 00:14:42;;;;;;;12.20;7.13;;;;;;;4.55;70.26;97521.81;10331124;28;20601;-47
2023/01/16 00:19:41;;;;;;;11.45;6.75;;;;;;;4.55;70.05;97526.94;10331137;28;20076;-47
2023/01/16 00:24:39;;;;;;;10.43;6.78;;;;;;;4.60;69.81;97522.75;10328823;28;20112;-46
2023/01/16 00:29:38;;;;;;;11.75;7.05;;;;;;;4.68;69.16;97513.44;10324571;28;20136;-47
2023/01/16 00:34:37;;;;;;;13.13;6.95;;;;;;;4.60;69.04;97504.75;10327123;28;20112;-46
2023/01/16 00:39:38;;;;;;;11.77;6.78;;;;;;;4.71;68.88;97513.53;10329936;28;20038;-46
2023/01/16 00:44:37;;;;;;;10.10;6.50;;;;;;;4.70;68.98;97504.06;10329437;28;20124;-48
2023/01/16 00:49:36;;;;;;;11.40;6.85;;;;;;;4.74;68.64;97493.88;10329688;28;20630;-47
2023/01/16 00:54:34;;;;;;;11.52;6.80;;;;;;;4.73;68.48;97477.56;10330133;28;20051;-49
2023/01/16 00:59:33;;;;;;;10.32;6.20;;;;;;;4.81;67.83;97475.13;10328736;28;20145;-47
2023/01/16 01:04:32;;;;;;;10.63;6.10;;;;;;;4.84;67.82;97464.91;10330060;28;20144;-49
2023/01/16 01:09:31;;;;;;;11.77;7.03;;;;;;;4.75;67.84;97462.16;10329125;28;20035;-48
2023/01/16 01:14:30;;;;;;;9.85;6.32;;;;;;;4.76;68.32;97445.88;10327831;28;20048;-49
2023/01/16 01:19:29;;;;;;;11.15;6.55;;;;;;;4.76;68.02;97453.59;10326149;28;20137;-46
2023/01/16 01:24:28;;;;;;;11.27;6.15;;;;;;;4.63;68.07;97458.53;10326710;28;20065;-49
2023/01/16 01:29:27;;;;;;;9.95;7.10;;;;;;;4.74;68.05;97452.75;10329368;28;20049;-47
2023/01/16 01:34:28;;;;;;;10.35;6.03;;;;;;;4.64;67.87;97451.69;10328802;28;20041;-48
2023/01/16 01:39:27;;;;;;;9.90;6.13;;;;;;;4.57;68.16;97445.59;10315558;28;20109;-46
2023/01/16 01:44:50;;;;;;;12.60;6.50;;;;;;;4.68;67.73;97444.06;10327258;28;20069;-49
2023/01/16 01:49:50;;;;;;;10.75;6.15;;;;;;;4.39;67.32;97376.78;10326604;28;20068;-49
2023/01/16 01:54:55;;;;;;;9.40;5.75;;;;;;;4.66;67.31;97425.16;10326469;28;20057;-48
2023/01/16 02:00:08;;;;;;;9.57;5.90;;;;;;;4.72;67.23;97425.28;10329530;28;20061;-46
2023/01/16 02:05:10;;;;;;;10.93;6.35;;;;;;;4.74;66.89;97412.47;10327669;28;20761;-47
2023/01/16 02:10:35;;;;;;;9.40;5.90;;;;;;;4.74;66.42;97403.91;10328309;28;20077;-49
2023/01/16 02:15:36;;;;;;;9.95;5.55;;;;;;;4.84;66.38;97411.78;10322555;28;20076;-47
2023/01/16 02:21:12;;;;;;;10.05;5.75;;;;;;;4.93;65.42;97395.63;10324706;28;20064;-49
2023/01/16 02:27:00;;;;;;;9.65;5.90;;;;;;;4.85;65.50;97402.34;10325223;28;20121;-48
2023/01/16 02:32:11;;;;;;;11.50;6.53;;;;;;;4.91;65.16;97387.88;10314115;28;20084;-48
2023/01/16 02:37:38;;;;;;;10.90;6.35;;;;;;;5.02;64.78;97385.53;10333561;28;20061;-46
2023/01/16 02:42:51;;;;;;;11.10;6.90;;;;;;;4.87;65.74;97378.38;10334663;28;21021;-47
2023/01/16 02:47:59;;;;;;;11.82;6.88;;;;;;;4.88;65.98;97374.13;10333496;28;20097;-47
2023/01/16 02:53:14;;;;;;;10.52;6.38;;;;;;;4.85;65.59;97372.38;10333743;28;20071;-47
2023/01/16 02:58:14;;;;;;;12.65;7.35;;;;;;;4.84;65.71;97362.94;10333118;28;20107;-48
2023/01/16 03:03:37;;;;;;;11.57;7.00;;;;;;;4.85;65.59;97372.38;10330100;28;20468;-49
2023/01/16 03:08:59;;;;;;;10.43;6.03;;;;;;;4.92;65.19;97363.03;10335201;28;20073;-48
2023/01/16 03:14:37;;;;;;;11.07;6.60;;;;;;;4.84;65.05;97355.22;10331500;28;20100;-49
2023/01/16 03:19:57;;;;;;;10.10;6.50;;;;;;;4.79;65.32;97345.72;10332715;28;20071;-48
2023/01/16 03:25:11;;;;;;;11.48;6.70;;;;;;;4.81;65.14;97334.59;10330903;28;20061;-48
2023/01/16 03:30:59;;;;;;;10.05;6.40;;;;;;;4.85;65.29;97320.06;10332918;28;20457;-49
2023/01/16 03:36:11;;;;;;;10.25;6.43;;;;;;;4.79;65.40;97315.72;10295998;28;20522;-48
2023/01/16 03:41:14;;;;;;;11.30;6.22;;;;;;;4.78;65.30;97318.25;10332637;28;20065;-47
2023/01/16 03:46:19;;;;;;;10.82;6.70;;;;;;;4.75;65.75;97297.66;10332526;28;20429;-48
2023/01/16 03:51:24;;;;;;;11.35;6.85;;;;;;;4.81;65.64;97298.63;10332458;28;20072;-47
2023/01/16 03:56:54;;;;;;;11.73;6.40;;;;;;;4.78;65.99;97292.56;10332517;28;20041;-47
2023/01/16 04:01:58;;;;;;;10.10;6.03;;;;;;;4.67;66.24;97280.44;10332441;28;20064;-46
2023/01/16 04:07:03;;;;;;;11.05;6.63;;;;;;;4.71;66.26;97279.63;10333711;28;20087;-47
2023/01/16 04:12:03;;;;;;;11.30;6.88;;;;;;;4.27;66.34;97197.63;10330042;28;20072;-47
2023/01/16 04:17:04;;;;;;;11.40;7.43;;;;;;;4.54;66.45;97249.38;10332715;28;20056;-49
2023/01/16 04:22:07;;;;;;;11.77;6.55;;;;;;;4.57;66.17;97252.00;10331127;28;20072;-49
2023/01/16 04:27:06;;;;;;;12.00;6.72;;;;;;;4.65;66.49;97269.25;10329988;28;20096;-48
2023/01/16 04:32:05;;;;;;;11.85;6.75;;;;;;;4.72;66.03;97265.94;10331669;28;20029;-48
2023/01/16 04:37:05;;;;;;;11.32;6.85;;;;;;;4.72;65.95;97258.22;10331313;28;20586;-47
2023/01/16 04:42:04;;;;;;;11.02;6.65;;;;;;;4.76;65.39;97256.56;10328252;28;20112;-49
2023/01/16 04:47:03;;;;;;;11.35;6.80;;;;;;;4.83;64.90;97250.66;10331074;28;20040;-49
2023/01/16 04:52:02;;;;;;;11.18;7.25;;;;;;;5.00;64.94;97257.78;10330803;28;20073;-49
2023/01/16 04:57:01;;;;;;;12.70;7.28;;;;;;;4.99;65.06;97246.59;10328819;28;20824;-49
2023/01/16 05:02:00;;;;;;;12.02;7.07;;;;;;;5.01;64.79;97250.06;10327944;28;20563;-49
2023/01/16 05:06:59;;;;;;;13.25;7.35;;;;;;;4.94;65.29;97240.53;10326898;28;20588;-46
2023/01/16 05:11:58;;;;;;;13.25;8.25;;;;;;;4.91;65.31;97233.63;10327731;28;20025;-47
2023/01/16 05:16:57;;;;;;;13.65;8.23;;;;;;;4.83;65.41;97229.22;10329211;28;20097;-47
2023/01/16 05:21:56;;;;;;;13.48;8.65;;;;;;;4.82;65.97;97222.34;10328348;28;20022;-49
2023/01/16 05:26:55;;;;;;;13.77;8.30;;;;;;;4.81;66.11;97216.38;10326735;28;20116;-48
2023/01/16 05:31:54;;;;;;;12.32;7.65;;;;;;;4.47;66.02;97164.50;10326185;28;20062;-48
2023/01/16 05:36:53;;;;;;;14.20;8.18;;;;;;;4.79;65.89;97199.19;10326086;28;20021;-49
2023/01/16 05:41:52;;;;;;;14.77;8.25;;;;;;;4.70;66.06;97199.94;10327015;28;20131;-49
2023/01/16 05:46:51;;;;;;;13.55;7.72;;;;;;;4.69;65.61;97180.22;10327877;28;20100;-49
2023/01/16 05:51:50;;;;;;;11.93;7.40;;;;;;;4.86;65.46;97167.56;10325510;28;20504;-48
2023/01/16 05:56:49;;;;;;;13.10;7.82;;;;;;;4.65;65.08;97133.06;10326334;28;20025;-47
2023/01/16 06:01:48;;;;;;;13.40;7.47;;;;;;;4.90;64.42;97169.34;10325326;28;20032;-49
2023/01/16 06:06:46;;;;;;;12.73;7.93;;;;;;;4.94;64.30;97145.41;10323249;28;20049;-49
2023/01/16 06:11:45;;;;;;;12.98;7.90;;;;;;;5.04;64.19;97157.53;10331028;28;20124;-49
2023/01/16 06:16:44;;;;;;;10.23;6.88;;;;;;;4.97;63.70;97136.88;10331420;28;20068;-49
2023/01/16 06:21:43;;;;;;;12.45;7.75;;;;;;;5.09;63.72;97161.03;10330132;28;20041;-48
2023/01/16 06:26:42;;;;;;;11.23;6.85;;;;;;;5.20;63.42;97173.13;10332808;28;20026;-46
2023/01/16 06:31:41;;;;;;;13.50;7.43;;;;;;;5.42;62.42;97184.53;10330103;28;20128;-47
2023/01/16 06:36:41;;;;;;;14.25;7.43;;;;;;;5.50;62.00;97163.13;10330650;28;20179;-47
2023/01/16 06:41:40;;;;;;;12.15;7.47;;;;;;;5.55;62.08;97181.19;10330760;28;20077;-48
2023/01/16 06:46:39;;;;;;;13.18;7.90;;;;;;;5.72;61.53;97181.38;10329598;28;20658;-47
2023/01/16 06:51:38;;;;;;;15.35;8.30;;;;;;;5.83;61.90;97177.16;10329834;28;20385;-47
2023/01/16 06:56:37;;;;;;;13.82;8.55;;;;;;;5.99;61.19;97173.00;10330245;28;20021;-47
2023/01/16 07:01:36;;;;;;;14.43;8.55;;;;;;;6.20;60.47;97156.84;10328171;28;20034;-49
2023/01/16 07:06:36;;;;;;;12.25;7.50;;;;;;;6.26;59.48;97180.06;10326573;28;20124;-48
2023/01/16 07:11:35;;;;;;;14.93;7.55;;;;;;;6.43;59.84;97195.63;10326137;28;20065;-49
2023/01/16 07:27:09;;;;;;;15.50;9.50;;;;;;;6.60;58.62;97168.22;10328299;28;20069;-47
2023/01/16 07:32:08;;;;;;;15.18;8.18;;;;;;;6.71;58.98;97173.44;10325588;28;20157;-47
2023/01/16 07:37:10;;;;;;;21.10;12.23;;;;;;;6.71;59.27;97139.94;10326657;28;20017;-49
2023/01/16 07:42:09;;;;;;;17.90;10.85;;;;;;;6.93;58.77;97165.81;10326623;28;20057;-49
2023/01/16 07:47:08;;;;;;;14.85;9.75;;;;;;;6.99;58.77;97163.25;10327391;28;20040;-48
2023/01/16 07:52:07;;;;;;;13.77;10.00;;;;;;;7.05;58.19;97155.53;10326898;28;20117;-48
2023/01/16 07:57:06;;;;;;;17.45;9.00;;;;;;;7.17;57.46;97159.84;10327674;28;20025;-49
2023/01/16 08:02:05;;;;;;;12.65;7.85;;;;;;;7.05;57.91;97158.09;10325793;28;20072;-48
2023/01/16 08:07:04;;;;;;;;;;;;;;;6.90;58.87;97176.13;10328226;28;20788;-47
2023/01/16 08:12:03;;;;;;;17.15;7.25;;;;;;;6.89;58.44;97171.78;10326592;28;20424;-50
2023/01/16 08:17:02;;;;;;;14.50;10.35;;;;;;;7.09;58.53;97171.88;10326474;28;20057;-48
2023/01/16 08:22:02;;;;;;;12.02;6.95;;;;;;;7.29;57.73;97169.34;10325394;28;20037;-49
2023/01/16 08:27:01;;;;;;;11.57;7.97;;;;;;;7.35;58.08;97164.22;10326368;28;20156;-48
2023/01/16 08:32:00;;;;;;;22.75;14.70;;;;;;;7.36;57.49;97142.72;10325657;28;20044;-50
2023/01/16 08:36:59;;;;;;;21.35;11.15;;;;;;;7.69;56.16;97164.31;10325936;28;20026;-50
2023/01/16 08:52:39;;;;;;;13.38;8.57;;;;;;;7.60;55.59;97166.00;10325942;28;20128;-48
2023/01/16 08:57:38;;;;;;;17.52;10.63;;;;;;;7.82;55.96;97166.88;10324525;28;20465;-51
2023/01/16 09:02:38;;;;;;;15.75;9.70;;;;;;;8.02;54.86;97153.13;10324210;28;20411;-50
2023/01/16 09:07:37;;;;;;;13.35;8.52;;;;;;;8.18;54.47;97126.41;10322427;28;20188;-50
2023/01/16 09:17:54;;;;;;;16.48;9.88;;;;;;;8.45;53.53;97122.88;10314276;28;20117;-49
2023/01/16 09:23:01;;;;;;;12.65;8.90;;;;;;;8.60;53.42;97105.59;10316589;28;20143;-50
2023/01/16 09:28:00;;;;;;;13.18;8.55;;;;;;;8.95;52.77;97092.53;10316597;28;20128;-49
2023/01/16 09:32:59;;;;;;;12.80;8.48;;;;;;;9.13;52.57;97094.13;10316497;28;20159;-48
2023/01/16 09:37:58;;;;;;;11.98;7.90;;;;;;;9.32;51.43;97074.19;10317586;28;20113;-49
2023/01/16 09:43:40;;;;;;;13.95;7.63;;;;;;;9.12;51.99;97098.44;10315695;28;20105;-48
2023/01/16 09:48:50;;;;;;;11.75;7.47;;;;;;;9.11;51.03;97080.31;10322693;28;20538;-50
2023/01/16 09:59:36;;;;;;;12.50;8.02;;;;;;;9.71;50.70;97056.63;10320306;28;20108;-50
2023/01/16 10:04:36;;;;;;;13.77;8.85;;;;;;;9.91;50.31;97041.75;10319948;28;20081;-50
2023/01/16 10:09:53;;;;;;;12.60;8.77;;;;;;;9.94;49.00;97027.91;10320625;28;20974;-48
2023/01/16 10:15:03;;;;;;;12.18;7.20;;;;;;;9.84;49.52;97008.13;10320768;28;20116;-49
2023/01/16 10:20:23;;;;;;;13.07;8.55;;;;;;;9.80;49.49;96989.19;10320377;28;20065;-49
2023/01/16 10:25:44;;;;;;;14.77;8.60;;;;;;;9.86;48.79;96989.09;10321189;28;20482;-50
2023/01/16 10:30:49;;;;;;;12.80;8.43;;;;;;;10.01;49.13;96993.28;10321569;28;20128;-50
2023/01/16 10:35:50;;;;;;;13.55;9.63;;;;;;;10.02;49.15;96978.56;10322171;28;20057;-49
2023/01/16 10:40:53;;;;;;;14.73;9.45;;;;;;;9.99;48.86;96966.50;10321678;28;20511;-51
2023/01/16 10:51:12;;;;;;;13.68;9.60;;;;;;;9.89;48.77;96960.56;10319499;28;20694;-50
2023/01/16 10:56:11;;;;;;;11.75;7.53;;;;;;;9.88;47.75;96958.00;10323777;28;20014;-51
2023/01/16 11:01:16;;;;;;;14.80;8.27;;;;;;;10.02;48.12;96944.88;10329428;28;20033;-50
2023/01/16 11:06:23;;;;;;;13.68;8.65;;;;;;;9.71;47.34;96948.66;10331580;28;20061;-50
2023/01/16 11:22:07;;;;;;;17.30;10.48;;;;;;;9.59;48.72;96916.88;10330304;28;20068;-50
2023/01/16 11:27:17;;;;;;;27.77;14.43;;;;;;;9.57;48.63;96911.69;10330587;28;20495;-50
2023/01/16 11:32:24;;;;;;;;;;;;;;;9.52;48.12;96909.16;10330754;28;20053;-49
2023/01/16 11:37:28;;;;;;;13.00;8.68;;;;;;;9.38;48.69;96892.06;10351329;28;19944;-49
2023/01/16 11:47:52;;;;;;;18.67;11.65;;;;;;;9.42;48.69;96870.41;10330330;28;20065;-49
2023/01/16 11:52:51;;;;;;;18.02;10.75;;;;;;;9.46;49.09;96872.94;10332195;28;20082;-50
2023/01/16 11:58:12;;;;;;;15.35;9.05;;;;;;;9.37;49.43;96847.16;10331648;28;20025;-49
2023/01/16 12:03:45;;;;;;;17.92;9.93;;;;;;;9.59;47.74;96841.75;10332217;28;20055;-49
2023/01/16 12:09:04;;;;;;;14.30;8.48;;;;;;;9.64;47.43;96840.81;10323752;28;20116;-50
2023/01/16 12:14:26;;;;;;;18.60;12.00;;;;;;;9.76;47.18;96817.34;10331574;28;20083;-51
2023/01/16 12:19:44;;;;;;;17.67;10.45;;;;;;;9.95;46.68;96827.47;10329959;28;20141;-48
2023/01/16 12:25:20;;;;;;;13.98;8.52;;;;;;;9.87;46.95;96816.34;10330914;28;20112;-51
2023/01/16 12:30:25;;;;;;;13.65;8.80;;;;;;;9.85;47.51;96792.19;10329631;28;20464;-50
2023/01/16 12:35:52;;;;;;;60.15;24.42;;;;;;;9.64;47.34;96801.94;10329728;28;20056;-50
2023/01/16 12:43:17;;;;;;;17.20;10.18;;;;;;;9.63;48.18;96805.44;10326667;28;20080;-50
2023/01/16 12:46:43;;;;;;;17.73;12.57;;;;;;;9.56;47.88;96796.03;10330132;28;20536;-49
2023/01/16 12:52:00;;;;;;;19.60;14.90;;;;;;;9.37;48.69;96800.53;10328799;28;20060;-50
2023/01/16 12:57:02;;;;;;;26.45;17.05;;;;;;;9.25;48.66;96780.78;10302014;28;20097;-50
2023/01/16 13:02:19;;;;;;;14.85;10.18;;;;;;;9.08;48.73;96774.97;10330478;28;20056;-48
2023/01/16 13:07:18;;;;;;;19.35;11.88;;;;;;;8.99;49.22;96746.59;10327359;28;20108;-50
2023/01/16 13:17:48;;;;;;;13.65;9.55;;;;;;;8.71;50.10;96741.69;10327756;28;20095;-48
2023/01/16 13:22:55;;;;;;;17.45;11.13;;;;;;;8.62;49.78;96746.97;10330214;28;20056;-48
2023/01/16 13:28:05;;;;;;;17.10;9.70;;;;;;;8.46;50.45;96730.75;10325948;28;20445;-48
2023/01/16 13:33:11;;;;;;;15.07;9.77;;;;;;;8.32;50.56;96707.63;10329007;28;20065;-50
2023/01/16 13:38:24;;;;;;;17.38;10.63;;;;;;;8.36;50.43;96692.91;10327280;28;20527;-50
2023/01/16 13:48:56;;;;;;;13.73;8.88;;;;;;;8.46;50.45;96691.97;10328110;28;20053;-48
2023/01/16 13:54:04;;;;;;;16.25;9.95;;;;;;;8.27;50.30;96629.25;10328839;28;20069;-49
2023/01/16 13:59:08;;;;;;;19.58;12.63;;;;;;;8.73;50.66;96680.47;10326652;28;20041;-48
2023/01/16 14:04:30;;;;;;;47.80;28.83;;;;;;;8.60;50.97;96671.13;10326704;28;20512;-49
2023/01/16 14:09:29;;;;;;;22.08;14.75;;;;;;;8.40;51.18;96638.59;10329732;28;20076;-48
2023/01/16 14:20:23;;;;;;;16.75;10.98;;;;;;;7.87;52.48;96660.59;10330653;28;20069;-47
2023/01/16 14:25:23;;;;;;;15.60;10.35;;;;;;;7.78;52.81;96640.91;10328050;28;20068;-49
2023/01/16 14:30:30;;;;;;;21.05;13.63;;;;;;;7.73;53.30;96670.19;10331379;28;20068;-53
2023/01/16 14:35:44;;;;;;;21.00;15.48;;;;;;;7.68;53.79;96680.53;10337692;28;20064;-49
2023/01/16 14:57:23;;;;;;;20.85;13.77;;;;;;;7.29;54.98;96673.88;10333691;28;20461;-50
2023/01/16 15:02:37;;;;;;;19.25;13.38;;;;;;;7.25;54.97;96653.25;10297319;28;20065;-48
2023/01/16 15:08:03;;;;;;;16.25;11.48;;;;;;;7.29;55.21;96656.69;10310258;28;20771;-47
2023/01/16 15:13:22;;;;;;;14.27;9.93;;;;;;;7.22;55.27;96627.47;10335256;28;20069;-49
2023/01/16 15:23:39;;;;;;;16.42;10.20;;;;;;;7.05;56.56;96629.28;10334538;28;20068;-48
2023/01/16 15:28:46;;;;;;;20.55;13.07;;;;;;;7.00;55.80;96629.28;10334572;28;20084;-47
2023/01/16 15:33:47;;;;;;;17.05;11.27;;;;;;;6.57;56.28;96562.47;10334920;28;20844;-49
2023/01/16 15:38:58;;;;;;;23.30;14.07;;;;;;;6.99;56.24;96614.69;10334261;28;20053;-49
2023/01/16 15:49:39;;;;;;;19.67;12.30;;;;;;;6.67;56.95;96560.72;10331271;28;20064;-50
2023/01/16 15:54:38;;;;;;;16.40;10.50;;;;;;;6.95;57.36;96600.09;10333837;28;20061;-50
2023/01/16 15:59:37;;;;;;;18.98;11.00;;;;;;;6.97;57.43;96584.63;10332835;28;20061;-49
2023/01/16 16:04:36;;;;;;;24.85;11.82;;;;;;;6.95;56.70;96588.94;10334260;28;20043;-50
2023/01/16 16:09:36;;;;;;;15.45;9.82;;;;;;;7.08;56.19;96569.94;10361824;28;20077;-48
2023/01/16 16:19:54;;;;;;;15.85;10.27;;;;;;;7.06;56.61;96545.88;10333101;28;20069;-48
2023/01/16 16:24:53;;;;;;;42.33;13.45;;;;;;;7.06;56.70;96552.78;10333165;28;20108;-51
2023/01/16 16:29:53;;;;;;;19.77;11.10;;;;;;;7.22;56.75;96539.75;10333692;28;20049;-49
2023/01/16 16:34:56;;;;;;;18.80;10.48;;;;;;;7.36;56.46;96542.22;10323285;28;20076;-51
2023/01/16 16:40:08;;;;;;;28.60;16.50;;;;;;;7.30;56.00;96531.09;10332849;28;20068;-50
2023/01/16 16:45:07;;;;;;;24.23;14.43;;;;;;;7.35;55.43;96516.41;10332235;28;20092;-48
2023/01/16 16:50:35;;;;;;;23.33;11.98;;;;;;;7.30;55.02;96490.66;10308703;28;20041;-49
2023/01/16 16:55:40;;;;;;;15.63;10.43;;;;;;;7.37;54.42;96499.19;10327934;28;20662;-49
2023/01/16 17:00:39;;;;;;;18.08;10.77;;;;;;;7.35;55.11;96475.97;10314793;28;20061;-49
2023/01/16 17:05:39;;;;;;;15.32;10.20;;;;;;;7.32;55.44;96482.91;10326993;28;20079;-48
2023/01/16 17:10:38;;;;;;;16.30;12.38;;;;;;;7.38;54.72;96494.03;10329303;28;20060;-49
2023/01/16 17:15:37;;;;;;;15.35;10.35;;;;;;;7.56;54.63;96469.78;10327135;28;20127;-48
2023/01/16 17:20:38;;;;;;;17.80;11.30;;;;;;;7.49;53.93;96475.88;10329851;28;20069;-47
2023/01/16 17:25:38;;;;;;;18.00;11.00;;;;;;;7.54;54.01;96448.31;10322222;28;20065;-46
2023/01/16 17:30:38;;;;;;;23.95;15.95;;;;;;;7.58;53.68;96439.66;10329103;28;20492;-49
2023/01/16 17:35:39;;;;;;;16.48;9.32;;;;;;;7.58;53.34;96439.66;10326541;28;20076;-48
2023/01/16 17:40:40;;;;;;;15.32;9.27;;;;;;;7.64;53.02;96443.94;10324605;28;20048;-47
2023/01/16 17:45:59;;;;;;;12.95;8.63;;;;;;;7.71;53.22;96457.59;10325623;28;20144;-52
2023/01/16 17:51:01;;;;;;;19.30;10.60;;;;;;;7.47;54.06;96431.16;10326325;28;20073;-49
2023/01/16 17:56:03;;;;;;;16.08;10.95;;;;;;;7.57;54.02;96471.53;10321882;28;20121;-49
2023/01/16 18:01:04;;;;;;;33.50;20.17;;;;;;;7.66;53.61;96488.63;10323101;28;20120;-49
2023/01/16 18:06:05;;;;;;;16.05;9.98;;;;;;;7.50;54.34;96506.00;10318596;28;20087;-50
2023/01/16 18:26:58;;;;;;;24.08;13.85;;;;;;;6.87;56.98;96485.84;10322438;28;20445;-49
2023/01/16 18:37:17;;;;;;;26.13;13.98;;;;;;;6.87;56.71;96498.72;10333021;28;20061;-49
2023/01/16 19:03:46;;;;;;;32.55;17.67;;;;;;;6.90;57.64;96469.47;10327969;28;20053;-49
2023/01/16 19:08:50;;;;;;;18.85;11.25;;;;;;;6.82;57.40;96457.50;10333552;28;20038;-51
2023/01/16 19:13:49;;;;;;;19.23;10.13;;;;;;;6.90;56.31;96449.69;10334897;28;20069;-49
2023/01/16 19:18:48;;;;;;;29.13;14.90;;;;;;;7.15;56.11;96447.78;10333877;28;20065;-49
2023/01/16 19:23:47;;;;;;;17.02;10.48;;;;;;;7.29;55.13;96395.19;10331805;28;20108;-49
2023/01/16 19:28:46;;;;;;;32.83;18.92;;;;;;;7.44;54.97;96379.59;10334071;28;20042;-48
2023/01/16 19:33:45;;;;;;;16.25;10.98;;;;;;;7.52;54.58;96346.81;10336080;28;20120;-49
2023/01/16 19:38:44;;;;;;;18.15;7.85;;;;;;;7.73;53.39;96373.22;10324057;28;20408;-49
2023/01/16 19:49:00;;;;;;;11.40;6.68;;;;;;;8.12;52.24;96376.19;10327141;28;20065;-49
2023/01/16 19:54:00;;;;;;;9.55;6.68;;;;;;;8.31;51.64;96385.38;10331752;28;20120;-47
2023/01/16 19:58:58;;;;;;;9.93;6.70;;;;;;;8.45;51.78;96378.28;10327401;28;20464;-50
2023/01/16 20:03:57;;;;;;;12.90;7.20;;;;;;;8.40;51.64;96372.34;10334931;28;20824;-49
2023/01/16 20:08:57;;;;;;;8.43;6.35;;;;;;;8.38;51.56;96370.66;10330631;28;20501;-50
2023/01/16 20:13:56;;;;;;;9.77;6.38;;;;;;;8.40;51.36;96361.16;10334318;28;20057;-49
2023/01/16 20:18:55;;;;;;;11.10;6.85;;;;;;;8.21;51.93;96351.06;10324891;28;20045;-48
2023/01/16 20:23:56;;;;;;;11.18;6.28;;;;;;;8.14;52.22;96330.53;10333739;28;20140;-50
2023/01/16 20:28:54;;;;;;;8.95;5.82;;;;;;;8.11;51.91;96343.47;10331073;28;20084;-50
2023/01/16 20:33:57;;;;;;;10.02;6.50;;;;;;;8.02;51.32;96322.06;10293180;28;20038;-47
2023/01/16 20:38:56;;;;;;;8.65;5.63;;;;;;;8.30;51.62;96373.34;10302188;28;20141;-47
2023/01/16 20:49:13;;;;;;;10.55;5.82;;;;;;;8.45;51.12;96357.59;10315425;28;20061;-48
2023/01/16 20:54:11;;;;;;;8.82;5.78;;;;;;;8.64;50.80;96386.63;10332898;28;20060;-48
2023/01/16 20:59:13;;;;;;;8.63;5.80;;;;;;;8.62;50.32;96338.38;10330610;28;20124;-48
2023/01/16 21:04:15;;;;;;;9.63;6.38;;;;;;;8.77;50.57;96379.53;10331181;28;20501;-49
2023/01/16 21:09:15;;;;;;;9.75;5.65;;;;;;;8.73;50.90;96388.22;10329093;28;20480;-49
2023/01/16 21:14:17;;;;;;;11.65;6.70;;;;;;;8.54;51.15;96386.78;10329778;28;20057;-47
2023/01/16 21:24:36;;;;;;;10.70;6.28;;;;;;;8.26;51.75;96406.13;10331884;28;20069;-48
2023/01/16 21:29:35;;;;;;;10.32;6.90;;;;;;;8.30;52.09;96435.38;10330843;28;20540;-49
2023/01/16 21:34:36;;;;;;;10.45;6.82;;;;;;;8.11;52.52;96449.41;10329292;28;20778;-48
2023/01/16 21:39:35;;;;;;;9.60;6.82;;;;;;;8.09;52.75;96437.38;10328692;28;20122;-49
2023/01/16 21:49:51;;;;;;;10.63;6.90;;;;;;;8.01;53.11;96449.53;10327150;28;20081;-47
2023/01/16 21:54:50;;;;;;;9.63;7.10;;;;;;;8.00;53.48;96432.31;10317083;28;20034;-48
2023/01/16 21:59:50;;;;;;;11.80;7.15;;;;;;;8.04;53.27;96439.16;10322018;28;20042;-49
2023/01/16 22:04:49;;;;;;;10.43;6.57;;;;;;;7.92;53.83;96428.97;10323739;28;20061;-50
2023/01/16 22:09:48;;;;;;;9.70;6.10;;;;;;;7.91;53.99;96426.41;10329971;28;20504;-47
2023/01/16 22:25:10;;;;;;;11.00;6.88;;;;;;;8.01;54.22;96407.31;10325010;28;20068;-50
2023/01/16 22:30:10;;;;;;;10.68;6.53;;;;;;;7.70;54.40;96350.88;10330436;28;20124;-50
2023/01/16 22:35:11;;;;;;;11.23;7.68;;;;;;;7.78;54.47;96400.72;10326210;28;20555;-50
2023/01/16 22:40:10;;;;;;;9.23;6.63;;;;;;;7.68;54.89;96429.25;10328745;28;20068;-47
2023/01/16 22:50:27;;;;;;;13.35;7.47;;;;;;;7.50;55.29;96409.63;10330143;28;20455;-47
2023/01/16 22:55:26;;;;;;;10.30;6.95;;;;;;;7.48;55.90;96395.91;10333901;28;20524;-47
2023/01/16 23:00:25;;;;;;;10.55;7.20;;;;;;;7.40;56.15;96388.22;10335309;28;20045;-48
2023/01/16 23:05:24;;;;;;;10.95;6.65;;;;;;;7.31;56.52;96385.69;10335305;28;20026;-49
2023/01/16 23:10:24;;;;;;;9.85;6.75;;;;;;;7.34;56.22;96388.28;10334804;28;20455;-50
2023/01/16 23:15:23;;;;;;;9.68;6.82;;;;;;;7.46;56.45;96357.19;10335567;28;20077;-50
2023/01/16 23:20:22;;;;;;;11.35;6.70;;;;;;;7.52;56.21;96341.66;10330860;28;20075;-49
2023/01/16 23:25:21;;;;;;;9.65;6.28;;;;;;;7.43;56.38;96349.50;10333367;28;20136;-49
2023/01/16 23:30:20;;;;;;;9.90;6.80;;;;;;;7.33;55.97;96322.88;10333245;28;20045;-47
2023/01/16 23:35:19;;;;;;;10.82;6.82;;;;;;;7.35;57.28;96341.78;10329364;28;20537;-50
2023/01/16 23:40:18;;;;;;;11.55;7.13;;;;;;;7.29;57.16;96322.94;10332987;28;20065;-47
2023/01/16 23:45:18;;;;;;;10.90;7.28;;;;;;;7.26;57.30;96308.34;10333593;28;20033;-50
2023/01/16 23:50:17;;;;;;;12.25;6.78;;;;;;;7.24;57.11;96304.94;10335771;28;20077;-49
2023/01/16 23:55:17;;;;;;;11.77;7.35;;;;;;;7.17;57.43;96298.13;10334067;28;20088;-49
